Aérodrome :
LOGIN :

S'inscrire | Disclaimer

   EN    FR    IT 

 










Légende :    VFR   VFR Marginal   IFR   IFR Intensif   IFR Très Intensif
Visi : 
Plafond : 
>= 8 km
>= 3000ft
5 à 8 km
1000 à 3000 ft
1500m à 5 km
500 à 1000 ft
800 à 1500m
200 à 500 ft
< 800m
< 200 ft
Symboles :   Orages  Brouillard  Fortes neiges  Fortes précipitations  Vent > 20 kt
SIGMETs :   Divers  Orages  Givrage  Turbulence  Onde Orograph.  Cendres Volcan.






- Altitude de l'aérodrome : 3 ft
- Code IATA : LWR


EHLW - Leuuwarden Air Base

DERNIER METAR :
  • 202055Z AUTO 10005KT 020V130 9999 BKN095 OVC100 23/18 Q1006 REDZ BLU

METARs EXPIRÉS :
  • 202048Z AUTO 10005KT 040V130 9999 SCT099 OVC100 23/18 Q1006 BLU
  • 202025Z AUTO 09003KT 040V130 9999 OVC310 23/19 Q1006 BLU
  • 201955Z AUTO 10003KT 020V130 9999 FEW100 OVC320 24/18 Q1006 BLU
  • 201925Z AUTO 10003KT 030V140 9999 BKN100 OVC320 25/18 Q1006 BLU
  • 201855Z AUTO 13003KT 060V150 9999 BKN100 OVC250 27/17 Q1006 BLU
  • 201825Z AUTO 14005KT 080V150 9999 BKN100 BKN250 OVC310 27/17 Q1006 BLU
  • 201755Z AUTO 14005KT 080V170 9999 NCD 28/16 Q1006 BLU
  • 201725Z AUTO 19004KT 090V210 9999 BKN240 OVC360 28/16 Q1006 BLU
  • 201655Z AUTO 18004KT 080V220 9999 OVC270 28/17 Q1006 BLU
  • 201625Z AUTO 18005KT 040V210 9999 OVC260 29/16 Q1007 BLU
  • 201555Z AUTO 14007KT 130V240 9999 BKN350 29/16 Q1007 BLU

TAF TAF EHLW
Valide du 20 à 17h jusqu'au 21 à 05h UTC


201646Z 2017/2105 17006KT CAVOK
BECMG 2018/2020 VRB03KT
PROB30
TEMPO 2021/2101 VRB15G28KT 3500 TSRA SHRA SCT050CB



MET'MAP, la Météo Aéronautique d'un coup d'oeil ! - Copyright ORBIFLY Décembre 2007 - Disclaimer

ORBIFLY MET'MAP TEAM :

Programmation & Développement : Alexandra Zaïnal
Sur une idée originale de : Baudouin d'Aumeries
Soutien technique & logistique : Manuel Goepfert
Assistance : Marc-Olivier Méhu




SOURCES & CREDITS :

   NOAA